createdAt,value
2022-10-17T00:00:57.483Z,12.20
2022-10-17T00:03:24.372Z,12.85
2022-10-17T00:05:51.211Z,13.95
2022-10-17T00:08:19.451Z,23.48
2022-10-17T00:10:54.880Z,20.20
2022-10-17T00:13:21.843Z,12.80
2022-10-17T00:15:48.849Z,26.63
2022-10-17T00:18:15.673Z,24.20
2022-10-17T00:20:42.535Z,23.35
2022-10-17T00:23:09.399Z,22.75
2022-10-17T00:25:37.109Z,35.53
2022-10-17T00:28:04.152Z,32.97
2022-10-17T00:30:32.867Z,37.95
2022-10-17T00:32:59.751Z,27.30
2022-10-17T00:35:26.708Z,26.45
2022-10-17T00:37:53.486Z,28.98
2022-10-17T00:40:20.640Z,22.00
2022-10-17T00:42:48.173Z,25.23
2022-10-17T00:45:20.407Z,28.35
2022-10-17T00:47:54.623Z,39.28
2022-10-17T00:50:22.141Z,25.58
2022-10-17T00:52:49.481Z,25.98
2022-10-17T00:55:24.646Z,23.23
2022-10-17T00:57:52.780Z,26.33
2022-10-17T01:00:20.843Z,23.67
2022-10-17T01:02:48.487Z,28.38
2022-10-17T01:05:17.011Z,27.30
2022-10-17T01:07:48.620Z,34.72
2022-10-17T01:10:16.191Z,16.80
2022-10-17T01:13:07.323Z,17.70
2022-10-17T01:15:57.032Z,18.00
2022-10-17T01:18:40.233Z,22.25
2022-10-17T01:21:07.032Z,18.58
2022-10-17T01:24:16.716Z,14.65
2022-10-17T01:26:58.827Z,15.38
2022-10-17T01:29:54.208Z,22.58
2022-10-17T01:32:45.858Z,16.73
2022-10-17T01:35:21.650Z,12.05
2022-10-17T01:38:01.359Z,12.02
2022-10-17T01:40:50.484Z,18.77
2022-10-17T01:43:25.892Z,19.85
2022-10-17T01:46:00.753Z,16.88
2022-10-17T01:48:34.992Z,11.13
2022-10-17T01:51:34.365Z,14.23
2022-10-17T01:54:30.764Z,13.18
2022-10-17T01:57:01.644Z,12.65
2022-10-17T01:59:44.359Z,11.95
2022-10-17T02:02:14.131Z,10.52
2022-10-17T02:04:42.209Z,13.15
2022-10-17T02:07:13.789Z,13.20
2022-10-17T02:09:40.707Z,13.10
2022-10-17T02:12:22.841Z,16.08
2022-10-17T02:15:08.211Z,7.68
2022-10-17T02:17:56.787Z,13.80
2022-10-17T02:20:50.832Z,12.75
2022-10-17T02:23:51.543Z,9.70
2022-10-17T02:26:28.598Z,14.57
2022-10-17T02:28:55.528Z,10.25
2022-10-17T02:31:31.670Z,14.38
2022-10-17T02:34:04.982Z,12.77
2022-10-17T02:36:43.341Z,17.58
2022-10-17T02:39:11.673Z,13.27
2022-10-17T02:41:40.749Z,11.35
2022-10-17T02:44:08.680Z,7.90
2022-10-17T02:46:37.214Z,17.27
2022-10-17T02:49:06.969Z,10.43
2022-10-17T02:51:44.913Z,18.20
2022-10-17T02:54:24.755Z,20.88
2022-10-17T02:57:03.663Z,11.00
2022-10-17T03:02:06.501Z,14.55
2022-10-17T03:04:34.192Z,15.63
2022-10-17T03:07:01.030Z,8.68
2022-10-17T03:09:28.120Z,12.23
2022-10-17T03:11:55.330Z,9.98
2022-10-17T03:14:22.172Z,7.65
2022-10-17T03:16:48.982Z,15.25
2022-10-17T03:19:15.820Z,13.48
2022-10-17T03:21:42.750Z,22.02
2022-10-17T03:24:09.715Z,12.40
2022-10-17T03:26:36.670Z,15.77
2022-10-17T03:29:04.145Z,10.23
2022-10-17T03:31:31.411Z,10.70
2022-10-17T03:33:58.391Z,11.90
2022-10-17T03:36:25.230Z,17.50
2022-10-17T03:38:55.366Z,12.77
2022-10-17T03:41:22.602Z,8.85
2022-10-17T03:43:49.423Z,12.27
2022-10-17T03:48:48.004Z,15.07
2022-10-17T03:51:15.512Z,9.20
2022-10-17T03:53:42.522Z,16.13
2022-10-17T03:56:20.635Z,10.30
2022-10-17T03:58:47.696Z,9.65
2022-10-17T04:01:16.955Z,14.48
2022-10-17T04:03:44.250Z,12.27
2022-10-17T04:06:12.902Z,11.70
2022-10-17T04:08:40.034Z,12.35
2022-10-17T04:11:08.022Z,19.10
2022-10-17T04:13:35.564Z,11.30
2022-10-17T04:16:05.617Z,27.35
2022-10-17T04:18:32.980Z,13.45
2022-10-17T04:21:04.853Z,16.77
2022-10-17T04:23:32.037Z,14.85
2022-10-17T04:26:00.591Z,11.45
2022-10-17T04:28:28.346Z,15.35
2022-10-17T04:31:04.295Z,12.73
2022-10-17T04:33:31.931Z,15.82
2022-10-17T04:36:04.295Z,15.40
2022-10-17T04:38:31.768Z,17.33
2022-10-17T04:41:03.055Z,11.93
2022-10-17T04:43:35.883Z,17.27
2022-10-17T04:46:05.321Z,12.43
2022-10-17T04:48:35.123Z,13.65
2022-10-17T04:51:10.866Z,9.70
2022-10-17T04:53:38.895Z,16.60
2022-10-17T04:56:11.800Z,10.32
2022-10-17T04:58:39.697Z,15.07
2022-10-17T05:01:08.327Z,14.63
2022-10-17T05:03:36.250Z,15.18
2022-10-17T05:06:14.731Z,15.80
2022-10-17T05:08:42.189Z,17.38
2022-10-17T05:11:19.752Z,17.33
2022-10-17T05:13:51.350Z,15.77
2022-10-17T05:16:18.330Z,13.10
2022-10-17T05:18:52.644Z,23.30
2022-10-17T05:21:21.359Z,15.85
2022-10-17T05:23:48.293Z,18.38
2022-10-17T05:26:15.629Z,18.45
2022-10-17T05:28:42.517Z,14.40
2022-10-17T05:31:11.379Z,19.05
2022-10-17T05:33:39.209Z,17.42
2022-10-17T05:36:06.867Z,33.20
2022-10-17T05:38:36.503Z,15.07
2022-10-17T05:41:05.171Z,13.23
2022-10-17T05:43:33.041Z,18.25
2022-10-17T05:46:03.982Z,17.90
2022-10-17T05:48:30.916Z,19.88
2022-10-17T05:50:59.865Z,20.55
2022-10-17T05:53:29.774Z,15.55
2022-10-17T05:56:01.784Z,22.23
2022-10-17T06:01:15.899Z,16.48
2022-10-17T06:03:42.911Z,17.88
2022-10-17T06:06:14.427Z,17.27
2022-10-17T06:08:41.338Z,16.08
2022-10-17T06:11:10.209Z,14.30
2022-10-17T06:13:38.346Z,23.63
2022-10-17T06:16:06.182Z,29.77
2022-10-17T06:18:33.587Z,17.90
2022-10-17T06:21:09.833Z,19.38
2022-10-17T06:23:36.702Z,20.40
2022-10-17T06:26:05.734Z,20.65
2022-10-17T06:28:33.369Z,19.17
2022-10-17T06:31:03.750Z,23.00
2022-10-17T06:33:30.639Z,20.92
2022-10-17T06:35:57.759Z,21.67
2022-10-17T06:38:24.716Z,13.88
2022-10-17T06:40:51.954Z,17.77
2022-10-17T06:43:18.861Z,16.15
2022-10-17T06:45:48.695Z,17.88
2022-10-17T06:48:15.674Z,26.52
2022-10-17T06:50:42.744Z,16.13
2022-10-17T06:53:09.647Z,22.65
2022-10-17T06:55:36.608Z,17.20
2022-10-17T06:58:03.545Z,21.05
2022-10-17T07:00:30.489Z,22.73
2022-10-17T07:02:57.389Z,13.98
2022-10-17T07:05:24.367Z,13.65
2022-10-17T07:07:52.041Z,18.40
2022-10-17T07:10:19.187Z,23.65
2022-10-17T07:12:46.229Z,18.95
2022-10-17T07:15:13.404Z,30.13
2022-10-17T07:17:40.261Z,17.95
2022-10-17T07:20:07.953Z,17.10
2022-10-17T07:22:34.929Z,18.30
2022-10-17T07:25:01.887Z,17.30
2022-10-17T07:27:29.217Z,15.88
2022-10-17T07:29:56.404Z,17.75
2022-10-17T07:32:23.406Z,16.48
2022-10-17T07:34:50.278Z,12.10
2022-10-17T07:37:17.178Z,11.52
2022-10-17T07:39:44.003Z,15.73
2022-10-17T07:42:10.813Z,15.93
2022-10-17T07:44:37.624Z,12.15
2022-10-17T07:47:04.497Z,19.67
2022-10-17T07:49:31.478Z,19.80
2022-10-17T07:51:58.441Z,12.20
2022-10-17T07:54:25.404Z,10.63
2022-10-17T07:56:52.406Z,15.77
2022-10-17T07:59:19.732Z,16.83
2022-10-17T08:01:46.583Z,19.25
2022-10-17T08:04:13.450Z,8.90
2022-10-17T08:06:40.405Z,13.82
2022-10-17T08:09:07.298Z,26.45
2022-10-17T08:11:35.948Z,13.05
2022-10-17T08:14:03.084Z,10.40
2022-10-17T08:16:29.916Z,11.10
2022-10-17T08:18:56.997Z,9.70
2022-10-17T08:21:23.919Z,16.90
2022-10-17T08:23:50.766Z,14.32
2022-10-17T08:26:19.959Z,11.07
2022-10-17T08:28:48.107Z,10.43
2022-10-17T08:31:20.623Z,13.13
2022-10-17T08:33:48.756Z,10.05
2022-10-17T08:36:17.978Z,11.68
2022-10-17T08:38:47.978Z,13.27
2022-10-17T08:41:52.413Z,8.82
2022-10-17T08:44:19.392Z,13.32
2022-10-17T08:46:49.021Z,7.47
2022-10-17T08:49:46.920Z,20.17
2022-10-17T08:52:35.154Z,12.60
2022-10-17T08:55:02.079Z,11.27
2022-10-17T08:57:29.390Z,12.18
2022-10-17T08:59:57.158Z,13.32
2022-10-17T09:02:47.754Z,14.18
2022-10-17T09:05:35.958Z,9.75
2022-10-17T09:08:28.306Z,7.50
2022-10-17T09:11:04.809Z,12.25
2022-10-17T09:13:46.578Z,15.15
2022-10-17T09:16:32.059Z,12.10
2022-10-17T09:19:08.825Z,13.48
2022-10-17T09:21:50.983Z,12.80
2022-10-17T09:24:25.384Z,11.52
2022-10-17T09:26:54.625Z,9.25
2022-10-17T09:29:28.546Z,25.38
2022-10-17T09:32:04.723Z,10.15
2022-10-17T09:34:33.055Z,10.85
2022-10-17T09:37:02.010Z,12.20
2022-10-17T09:39:33.166Z,11.10
2022-10-17T09:42:01.560Z,8.02
2022-10-17T09:44:32.966Z,10.38
2022-10-17T09:47:21.894Z,12.25
2022-10-17T09:49:49.997Z,17.17
2022-10-17T09:52:29.409Z,8.20
2022-10-17T09:55:03.159Z,10.35
2022-10-17T09:57:52.753Z,12.27
2022-10-17T10:00:31.988Z,11.27
2022-10-17T10:03:21.117Z,12.73
2022-10-17T10:06:13.795Z,13.57
2022-10-17T10:09:03.336Z,10.25
2022-10-17T10:11:48.809Z,13.55
2022-10-17T10:14:33.479Z,11.25
2022-10-17T10:17:02.308Z,11.45
2022-10-17T10:19:37.233Z,10.85
2022-10-17T10:22:06.295Z,16.85
2022-10-17T10:24:33.286Z,13.82
2022-10-17T10:27:04.704Z,12.55
2022-10-17T10:29:43.270Z,14.75
2022-10-17T10:32:13.117Z,13.60
2022-10-17T10:34:52.776Z,13.93
2022-10-17T10:37:26.355Z,11.90
2022-10-17T10:39:59.617Z,18.25
2022-10-17T10:42:36.090Z,17.02
2022-10-17T10:45:35.879Z,11.85
2022-10-17T10:48:24.105Z,20.13
2022-10-17T10:51:00.594Z,15.70
2022-10-17T10:54:03.764Z,22.63
2022-10-17T10:56:54.246Z,18.80
2022-10-17T10:59:30.508Z,16.48
2022-10-17T11:02:05.033Z,21.50
2022-10-17T11:04:46.589Z,14.88
2022-10-17T11:07:13.334Z,18.75
2022-10-17T11:09:42.887Z,19.90
2022-10-17T11:12:27.469Z,13.18
2022-10-17T11:15:18.424Z,17.80
2022-10-17T11:18:07.401Z,24.98
2022-10-17T11:20:58.482Z,23.42
2022-10-17T11:23:25.252Z,16.73
2022-10-17T11:25:54.389Z,20.25
2022-10-17T11:28:24.599Z,15.60
2022-10-17T11:31:14.863Z,21.83
2022-10-17T11:33:56.931Z,17.23
2022-10-17T11:36:30.771Z,14.57
2022-10-17T11:41:49.302Z,16.27
2022-10-17T11:44:36.458Z,13.15
2022-10-17T11:47:17.684Z,20.70
2022-10-17T11:52:58.726Z,18.48
2022-10-17T11:55:28.573Z,10.55
2022-10-17T11:58:33.347Z,9.57
2022-10-17T12:03:53.364Z,17.75
2022-10-17T12:06:38.416Z,11.77
2022-10-17T12:09:25.571Z,14.43
2022-10-17T12:11:59.632Z,12.25
2022-10-17T12:14:48.586Z,14.55
2022-10-17T12:17:38.930Z,15.10
2022-10-17T12:20:21.682Z,10.13
2022-10-17T12:22:54.139Z,8.40
2022-10-17T12:25:24.045Z,15.55
2022-10-17T12:28:13.223Z,13.70
2022-10-17T12:31:00.277Z,9.80
2022-10-17T12:33:34.771Z,8.77
2022-10-17T12:36:17.029Z,9.45
2022-10-17T12:38:56.758Z,8.68
2022-10-17T12:41:39.023Z,8.82
2022-10-17T12:44:15.246Z,8.88
2022-10-17T12:46:57.490Z,20.05
2022-10-17T12:49:46.944Z,10.98
2022-10-17T12:52:27.209Z,7.75
2022-10-17T12:55:07.171Z,6.68
2022-10-17T13:00:43.824Z,6.03
2022-10-17T13:03:22.525Z,9.20
2022-10-17T13:05:54.305Z,5.88
2022-10-17T13:08:38.814Z,6.85
2022-10-17T13:11:07.679Z,8.30
2022-10-17T13:13:49.441Z,8.95
2022-10-17T13:16:33.125Z,9.60
2022-10-17T13:19:01.360Z,6.97
2022-10-17T13:21:29.306Z,7.28
2022-10-17T13:23:56.325Z,5.97
2022-10-17T13:26:29.546Z,8.85
2022-10-17T13:29:06.970Z,9.80
2022-10-17T13:31:36.404Z,10.65
2022-10-17T13:34:06.457Z,9.98
2022-10-17T13:36:35.349Z,19.23
2022-10-17T13:39:12.192Z,9.75
2022-10-17T13:41:41.714Z,7.70
2022-10-17T13:44:23.342Z,9.63
2022-10-17T13:46:50.638Z,8.40
2022-10-17T13:49:32.490Z,8.30
2022-10-17T13:52:01.315Z,6.60
2022-10-17T13:54:41.262Z,9.13
2022-10-17T13:57:21.830Z,8.25
2022-10-17T14:00:09.906Z,7.43
2022-10-17T14:02:40.666Z,9.98
2022-10-17T14:05:18.689Z,7.32
2022-10-17T14:08:10.589Z,3.55
2022-10-17T14:10:41.015Z,4.82
2022-10-17T14:13:21.391Z,12.43
2022-10-17T14:15:48.612Z,5.97
2022-10-17T14:18:33.284Z,6.05
2022-10-17T14:23:52.660Z,10.60
2022-10-17T14:26:22.191Z,7.30
2022-10-17T14:29:07.681Z,7.35
2022-10-17T14:31:37.027Z,7.93
2022-10-17T14:34:05.443Z,9.70
2022-10-17T14:36:37.062Z,6.75
2022-10-17T14:39:10.572Z,4.20
2022-10-17T14:41:44.551Z,6.25
2022-10-17T14:44:23.942Z,3.65
2022-10-17T14:47:30.680Z,9.73
2022-10-17T14:50:29.467Z,7.63
2022-10-17T14:53:01.882Z,7.30
2022-10-17T14:55:30.810Z,11.23
2022-10-17T14:57:58.298Z,3.85
2022-10-17T15:00:26.266Z,9.48
2022-10-17T15:02:55.249Z,7.32
2022-10-17T15:05:25.701Z,14.82
2022-10-17T15:07:53.686Z,9.77
2022-10-17T15:10:25.438Z,9.13
2022-10-17T15:12:59.369Z,8.43
2022-10-17T15:15:34.834Z,7.55
2022-10-17T15:18:01.926Z,18.95
2022-10-17T15:20:30.487Z,13.13
2022-10-17T15:22:59.652Z,8.38
2022-10-17T15:25:27.669Z,8.00
2022-10-17T15:27:54.983Z,7.93
2022-10-17T15:30:24.269Z,7.10
2022-10-17T15:32:52.097Z,7.10
2022-10-17T15:35:19.242Z,6.50
2022-10-17T15:37:46.858Z,6.55
2022-10-17T15:40:19.842Z,4.85
2022-10-17T15:42:46.893Z,5.80
2022-10-17T15:45:16.398Z,6.45
2022-10-17T15:47:49.286Z,7.07
2022-10-17T15:50:17.508Z,6.60
2022-10-17T15:52:44.486Z,5.70
2022-10-17T15:55:11.595Z,5.32
2022-10-17T15:57:41.404Z,10.48
2022-10-17T16:00:16.814Z,6.45
2022-10-17T16:02:44.255Z,4.93
2022-10-17T16:05:19.381Z,10.68
2022-10-17T16:07:46.829Z,13.13
2022-10-17T16:10:14.568Z,4.55
2022-10-17T16:12:42.106Z,4.65
2022-10-17T16:15:18.191Z,5.82
2022-10-17T16:17:45.147Z,8.60
2022-10-17T16:20:13.308Z,9.32
2022-10-17T16:22:42.640Z,11.02
2022-10-17T16:25:23.206Z,8.52
2022-10-17T16:27:52.271Z,5.82
2022-10-17T16:32:47.342Z,17.85
2022-10-17T16:35:26.295Z,9.13
2022-10-17T16:37:53.363Z,10.57
2022-10-17T16:40:20.411Z,7.60
2022-10-17T16:42:47.271Z,7.55
2022-10-17T16:45:21.794Z,9.00
2022-10-17T16:47:49.741Z,10.45
2022-10-17T16:50:16.897Z,7.68
2022-10-17T16:52:43.741Z,7.28
2022-10-17T16:55:10.678Z,8.45
2022-10-17T16:57:37.781Z,9.15
2022-10-17T17:00:06.692Z,10.63
2022-10-17T17:02:33.970Z,23.48
2022-10-17T17:05:00.996Z,18.48
2022-10-17T17:07:29.668Z,11.52
2022-10-17T17:09:56.931Z,14.10
2022-10-17T17:12:24.429Z,8.68
2022-10-17T17:14:51.558Z,6.93
2022-10-17T17:17:30.418Z,9.60
2022-10-17T17:20:06.642Z,10.35
2022-10-17T17:22:33.511Z,13.27
2022-10-17T17:25:00.387Z,11.73
2022-10-17T17:27:28.674Z,12.70
2022-10-17T17:29:55.887Z,10.90
2022-10-17T17:32:22.828Z,8.65
2022-10-17T17:34:49.704Z,12.82
2022-10-17T17:37:16.655Z,8.40
2022-10-17T17:39:43.500Z,13.35
2022-10-17T17:42:10.416Z,15.52
2022-10-17T17:44:37.286Z,10.50
2022-10-17T17:47:04.237Z,11.63
2022-10-17T17:49:31.084Z,20.40
2022-10-17T17:51:58.669Z,12.40
2022-10-17T17:54:25.572Z,13.02
2022-10-17T17:56:52.502Z,15.38
2022-10-17T17:59:19.293Z,22.98
2022-10-17T18:01:46.323Z,12.35
2022-10-17T18:04:13.430Z,10.85
2022-10-17T18:06:40.686Z,18.80
2022-10-17T18:09:09.059Z,17.08
2022-10-17T18:11:37.353Z,11.45
2022-10-17T18:14:07.341Z,17.50
2022-10-17T18:16:35.784Z,19.17
2022-10-17T18:19:08.920Z,18.48
2022-10-17T18:21:36.746Z,11.52
2022-10-17T18:24:04.899Z,15.57
2022-10-17T18:26:32.224Z,22.08
2022-10-17T18:28:59.271Z,15.70
2022-10-17T18:31:35.477Z,25.90
2022-10-17T18:34:04.555Z,23.63
2022-10-17T18:36:32.747Z,21.90
2022-10-17T18:39:00.559Z,20.88
2022-10-17T18:41:28.258Z,15.50
2022-10-17T18:43:56.190Z,18.63
2022-10-17T18:46:28.269Z,18.73
2022-10-17T18:48:55.545Z,19.17
2022-10-17T18:51:24.373Z,18.42
2022-10-17T18:53:55.400Z,14.48
2022-10-17T18:56:22.914Z,19.17
2022-10-17T18:58:49.773Z,20.45
2022-10-17T19:01:19.949Z,26.00
2022-10-17T19:03:48.396Z,22.33
2022-10-17T19:06:18.088Z,18.42
2022-10-17T19:08:45.385Z,24.42
2022-10-17T19:11:17.612Z,21.17
2022-10-17T19:16:20.803Z,21.87
2022-10-17T19:18:56.403Z,25.75
2022-10-17T19:21:23.588Z,23.60
2022-10-17T19:24:12.696Z,28.08
2022-10-17T19:26:40.879Z,25.52
2022-10-17T19:29:07.951Z,29.85
2022-10-17T19:31:39.866Z,23.05
2022-10-17T19:34:06.718Z,25.48
2022-10-17T19:36:35.436Z,32.65
2022-10-17T19:39:07.179Z,28.83
2022-10-17T19:41:35.397Z,32.63
2022-10-17T19:44:03.027Z,27.98
2022-10-17T19:46:30.993Z,29.33
2022-10-17T19:48:58.236Z,33.75
2022-10-17T19:51:26.473Z,30.60
2022-10-17T19:53:55.636Z,32.92
2022-10-17T19:56:24.548Z,30.95
2022-10-17T19:58:51.905Z,29.58
2022-10-17T20:01:21.350Z,34.20
2022-10-17T20:03:48.601Z,32.15
2022-10-17T20:06:16.258Z,42.58
2022-10-17T20:08:43.369Z,32.47
2022-10-17T20:11:19.190Z,33.38
2022-10-17T20:13:46.352Z,36.20
2022-10-17T20:16:22.530Z,36.88
2022-10-17T20:18:51.344Z,33.35
2022-10-17T20:21:21.492Z,41.40
2022-10-17T20:23:49.027Z,36.35
2022-10-17T20:26:33.199Z,34.50
2022-10-17T20:29:08.743Z,37.45
2022-10-17T20:31:36.320Z,36.45
2022-10-17T20:34:03.577Z,35.15
2022-10-17T20:36:30.685Z,32.55
2022-10-17T20:38:58.976Z,33.25
2022-10-17T20:41:26.944Z,32.17
2022-10-17T20:43:55.147Z,35.35
2022-10-17T20:46:36.283Z,42.67
2022-10-17T20:49:05.505Z,34.70
2022-10-17T20:51:32.690Z,37.45
2022-10-17T20:53:59.574Z,35.17
2022-10-17T20:56:29.506Z,47.30
2022-10-17T20:59:01.905Z,31.67
2022-10-17T21:01:30.844Z,44.00
2022-10-17T21:04:06.226Z,34.60
2022-10-17T21:06:43.087Z,34.40
2022-10-17T21:09:09.960Z,42.03
2022-10-17T21:11:37.380Z,36.70
2022-10-17T21:14:06.962Z,41.70
2022-10-17T21:16:37.323Z,38.30
2022-10-17T21:19:05.339Z,41.58
2022-10-17T21:21:34.873Z,39.03
2022-10-17T21:24:06.464Z,44.58
2022-10-17T21:26:35.328Z,51.70
2022-10-17T21:29:06.003Z,46.45
2022-10-17T21:31:34.905Z,50.33
2022-10-17T21:34:09.435Z,40.88
2022-10-17T21:36:36.721Z,47.28
2022-10-17T21:39:04.523Z,47.15
2022-10-17T21:41:31.900Z,38.05
2022-10-17T21:44:01.732Z,44.65
2022-10-17T21:46:29.183Z,46.80
2022-10-17T21:48:56.455Z,49.20
2022-10-17T21:51:25.785Z,50.85
2022-10-17T21:53:54.448Z,40.55
2022-10-17T21:56:23.798Z,38.10
2022-10-17T21:58:51.732Z,39.63
2022-10-17T22:01:34.103Z,42.60
2022-10-17T22:04:03.217Z,45.55
2022-10-17T22:06:39.801Z,48.15
2022-10-17T22:09:19.213Z,45.92
2022-10-17T22:11:49.084Z,51.03
2022-10-17T22:14:21.019Z,59.08
2022-10-17T22:16:49.009Z,58.13
2022-10-17T22:19:25.627Z,60.08
2022-10-17T22:21:53.296Z,51.97
2022-10-17T22:26:53.536Z,64.43
2022-10-17T22:29:20.629Z,51.28
2022-10-17T22:31:50.651Z,71.88
2022-10-17T22:34:18.570Z,64.78
2022-10-17T22:36:48.668Z,54.58
2022-10-17T22:39:15.503Z,50.60
2022-10-17T22:41:42.376Z,50.08
2022-10-17T22:44:09.382Z,54.72
2022-10-17T22:46:36.489Z,57.92
2022-10-17T22:49:03.826Z,48.85
2022-10-17T22:51:30.855Z,56.63
2022-10-17T22:53:57.726Z,55.05
2022-10-17T22:56:24.671Z,50.75
2022-10-17T22:58:51.864Z,57.92
2022-10-17T23:01:22.112Z,59.78
2022-10-17T23:03:49.572Z,47.95
2022-10-17T23:06:16.691Z,69.43
2022-10-17T23:08:43.808Z,47.08
2022-10-17T23:11:11.149Z,45.85
2022-10-17T23:13:38.071Z,44.67
2022-10-17T23:16:05.360Z,56.45
2022-10-17T23:18:32.297Z,57.53
2022-10-17T23:20:59.382Z,54.75
2022-10-17T23:23:26.251Z,60.40
2022-10-17T23:25:53.400Z,81.60
2022-10-17T23:28:20.345Z,61.70
2022-10-17T23:30:47.284Z,61.08
2022-10-17T23:33:14.834Z,59.10
2022-10-17T23:35:41.891Z,66.93
2022-10-17T23:38:09.804Z,59.40
2022-10-17T23:40:36.805Z,66.38
2022-10-17T23:43:04.539Z,64.40
2022-10-17T23:45:36.057Z,60.10
2022-10-17T23:48:03.174Z,73.35
2022-10-17T23:50:30.109Z,72.25
2022-10-17T23:52:56.949Z,70.00
2022-10-17T23:55:23.800Z,86.03
2022-10-17T23:57:50.706Z,105.93
